Datum - Zeit
Döttingen
TemperaturTaupunktFeuchteSolar Wind aus
Richtung
Windböenaus
Richtung
Luftdruck
(QFF)
RegenRegen
Stärke
02.07.2020 - 00.00Uhr21.1 °C16.3 °C74 %0.0 W/m²12.3 km/hSüd-SO18.0 km/hOst-SO1011.2 hPa0.0 mm0.0 mm/h
02.07.2020 - 00.05Uhr21.1 °C16.3 °C74 %0.0 W/m²8.9 km/hSüd-SO16.2 km/hSüd-SO1011.2 hPa0.0 mm0.0 mm/h
02.07.2020 - 00.10Uhr20.9 °C16.3 °C75 %0.0 W/m²7.2 km/hSüd-SO16.2 km/hSüdosten1011.3 hPa0.0 mm0.0 mm/h
02.07.2020 - 00.15Uhr20.8 °C16.4 °C76 %0.0 W/m²8.3 km/hSüd-SO18.0 km/hSüd-SO1011.6 hPa0.0 mm0.0 mm/h
02.07.2020 - 00.20Uhr20.9 °C16.5 °C76 %0.0 W/m²11.2 km/hSüd-SO16.2 km/hSüd-SO1011.4 hPa0.0 mm0.0 mm/h
02.07.2020 - 00.25Uhr20.9 °C16.6 °C77 %0.0 W/m²8.1 km/hSüdosten22.0 km/hOst-SO1011.5 hPa0.0 mm0.0 mm/h
02.07.2020 - 00.30Uhr20.7 °C16.8 °C78 %0.0 W/m²8.5 km/hWest-SW36.0 km/hSüden1011.5 hPa0.0 mm0.0 mm/h
02.07.2020 - 00.35Uhr20.4 °C16.9 °C80 %0.0 W/m²5.4 km/hSüd-SW16.2 km/hSüd-SO1011.7 hPa0.0 mm0.0 mm/h
02.07.2020 - 00.40Uhr20.1 °C16.9 °C82 %0.0 W/m²11.1 km/hSüd-SO20.2 km/hSüd-SO1011.7 hPa0.8 mm59.4 mm/h
02.07.2020 - 00.45Uhr19.5 °C16.7 °C84 %0.0 W/m²10.0 km/hSüd-SO20.2 km/hSüdosten1012.1 hPa0.6 mm16.4 mm/h
02.07.2020 - 00.50Uhr18.9 °C16.3 °C85 %0.0 W/m²5.3 km/hSüdwesten12.2 km/hSüdwesten1012.2 hPa1.8 mm51.0 mm/h
02.07.2020 - 00.55Uhr18.6 °C16.2 °C86 %0.0 W/m²7.8 km/hWest-SW22.0 km/hWest-SW1012.4 hPa6.0 mm172.0 mm/h
02.07.2020 - 01.00Uhr18.2 °C15.8 °C86 %0.0 W/m²2.3 km/hWesten5.8 km/hWesten1012.4 hPa2.2 mm69.0 mm/h
02.07.2020 - 01.05Uhr18.1 °C15.7 °C86 %0.0 W/m²11.8 km/hSüd-SO18.0 km/hSüd-SO1012.1 hPa4.4 mm107.6 mm/h
02.07.2020 - 01.10Uhr17.9 °C15.5 °C86 %0.0 W/m²11.5 km/hSüd-SO16.2 km/hSüdosten1012.1 hPa0.0 mm8.8 mm/h
02.07.2020 - 01.15Uhr18.0 °C15.6 °C86 %0.0 W/m²10.4 km/hSüdosten16.2 km/hOst-SO1012.1 hPa1.0 mm56.4 mm/h
02.07.2020 - 01.20Uhr18.1 °C15.7 °C86 %0.0 W/m²7.8 km/hSüdosten14.0 km/hSüdosten1012.2 hPa1.4 mm69.0 mm/h
02.07.2020 - 01.25Uhr18.1 °C15.7 °C86 %0.0 W/m²12.5 km/hSüd-SO22.0 km/hSüdosten1012.1 hPa1.8 mm38.6 mm/h
02.07.2020 - 01.30Uhr17.9 °C15.5 °C86 %0.0 W/m²10.2 km/hSüd-SO18.0 km/hSüden1012.0 hPa0.2 mm10.2 mm/h
02.07.2020 - 01.35Uhr17.9 °C15.5 °C86 %0.0 W/m²10.9 km/hSüd-SO16.2 km/hSüdosten1012.1 hPa2.0 mm37.6 mm/h
02.07.2020 - 01.40Uhr17.9 °C15.5 °C86 %0.0 W/m²12.6 km/hSüd-SO16.2 km/hSüdosten1011.9 hPa2.6 mm62.6 mm/h
02.07.2020 - 01.45Uhr17.8 °C15.4 °C86 %0.0 W/m²9.6 km/hSüd-SO16.2 km/hOst-SO1011.9 hPa0.2 mm16.8 mm/h
02.07.2020 - 01.50Uhr17.9 °C15.5 °C86 %0.0 W/m²7.2 km/hSüd-SO10.1 km/hSüdosten1011.9 hPa0.6 mm36.6 mm/h
02.07.2020 - 01.55Uhr17.9 °C15.5 °C86 %0.0 W/m²10.1 km/hSüdosten16.2 km/hSüdosten1011.9 hPa0.6 mm32.0 mm/h
02.07.2020 - 02.00Uhr17.8 °C15.4 °C86 %0.0 W/m²8.5 km/hSüdosten14.0 km/hSüd-SO1011.9 hPa0.0 mm2.6 mm/h
02.07.2020 - 02.05Uhr17.8 °C15.4 °C86 %0.0 W/m²10.2 km/hSüd-SO16.2 km/hSüd-SO1011.8 hPa0.0 mm1.2 mm/h
02.07.2020 - 02.10Uhr17.9 °C15.5 °C86 %0.0 W/m²6.5 km/hSüdosten14.0 km/hSüdosten1011.8 hPa0.0 mm0.8 mm/h
02.07.2020 - 02.15Uhr17.9 °C15.5 °C86 %0.0 W/m²7.2 km/hSüdosten14.0 km/hSüdosten1011.8 hPa0.0 mm0.0 mm/h
02.07.2020 - 02.20Uhr17.9 °C15.5 °C86 %0.0 W/m²1.6 km/hSüdosten8.3 km/hSüdosten1011.8 hPa0.0 mm0.0 mm/h
02.07.2020 - 02.25Uhr17.9 °C15.5 °C86 %0.0 W/m²0.7 km/hSüdosten4.0 km/hSüdosten1011.8 hPa0.0 mm0.0 mm/h
02.07.2020 - 02.30Uhr17.9 °C15.5 °C86 %0.0 W/m²1.3 km/hSüdosten4.0 km/hSüdosten1011.8 hPa0.0 mm0.0 mm/h
02.07.2020 - 02.35Uhr17.9 °C15.5 °C86 %0.0 W/m²0.0 km/hSüdosten0.0 km/hNorden1011.8 hPa0.0 mm0.0 mm/h
02.07.2020 - 02.40Uhr17.9 °C15.5 °C86 %0.0 W/m²1.4 km/hSüdosten4.0 km/hSüdosten1011.8 hPa0.0 mm0.0 mm/h
02.07.2020 - 02.45Uhr17.8 °C15.4 °C86 %0.0 W/m²0.1 km/hSüdosten1.8 km/hSüdosten1011.8 hPa0.0 mm0.0 mm/h
02.07.2020 - 02.50Uhr17.8 °C15.4 °C86 %0.0 W/m²0.0 km/hSüdosten0.0 km/hNorden1011.8 hPa0.0 mm0.0 mm/h
02.07.2020 - 02.55Uhr17.7 °C15.3 °C86 %0.0 W/m²0.0 km/hSüdosten0.0 km/hNorden1011.7 hPa0.0 mm0.0 mm/h
02.07.2020 - 03.00Uhr17.6 °C15.2 °C86 %0.0 W/m²0.3 km/hSüdosten1.8 km/hSüdosten1011.7 hPa0.0 mm0.0 mm/h
02.07.2020 - 03.05Uhr17.6 °C15.2 °C86 %0.0 W/m²0.0 km/hSüdosten0.0 km/hNorden1011.7 hPa0.0 mm0.0 mm/h
02.07.2020 - 03.10Uhr17.5 °C15.1 °C86 %0.0 W/m²1.1 km/hSüdosten4.0 km/hSüdosten1011.7 hPa0.0 mm0.0 mm/h
02.07.2020 - 03.15Uhr17.7 °C15.3 °C86 %0.0 W/m²0.0 km/hSüdosten0.0 km/hNorden1011.6 hPa0.0 mm0.0 mm/h
02.07.2020 - 03.20Uhr17.7 °C15.3 °C86 %0.0 W/m²0.2 km/hSüdosten1.8 km/hSüdosten1011.6 hPa0.0 mm0.0 mm/h
02.07.2020 - 03.25Uhr17.8 °C15.3 °C86 %0.0 W/m²0.0 km/hSüdosten0.0 km/hNorden1011.5 hPa0.0 mm0.0 mm/h
02.07.2020 - 03.30Uhr17.8 °C15.4 °C86 %0.0 W/m²0.0 km/hSüdosten0.0 km/hNorden1011.5 hPa0.0 mm0.0 mm/h
02.07.2020 - 03.35Uhr17.6 °C15.2 °C86 %0.0 W/m²0.0 km/hSüdosten0.0 km/hNorden1011.5 hPa0.0 mm0.0 mm/h
02.07.2020 - 03.40Uhr17.6 °C15.2 °C86 %0.0 W/m²1.4 km/hSüdosten4.0 km/hSüdosten1011.4 hPa0.0 mm0.0 mm/h
02.07.2020 - 03.45Uhr17.4 °C15.0 °C86 %0.0 W/m²4.2 km/hSüdosten8.3 km/hSüdosten1011.3 hPa0.0 mm0.0 mm/h
02.07.2020 - 03.50Uhr17.3 °C14.9 °C86 %0.0 W/m²3.0 km/hSüdosten8.3 km/hSüdosten1011.4 hPa0.0 mm0.0 mm/h
02.07.2020 - 03.55Uhr17.3 °C14.9 °C86 %0.0 W/m²0.1 km/hSüdosten1.8 km/hSüdosten1011.4 hPa0.0 mm0.0 mm/h
02.07.2020 - 04.00Uhr17.3 °C14.9 °C86 %0.0 W/m²0.0 km/hSüdosten0.0 km/hNorden1011.4 hPa0.0 mm0.0 mm/h
02.07.2020 - 04.05Uhr17.3 °C14.9 °C86 %0.0 W/m²0.5 km/hSüdosten1.8 km/hSüdosten1011.4 hPa0.0 mm0.0 mm/h
02.07.2020 - 04.10Uhr17.2 °C14.8 °C86 %0.0 W/m²1.8 km/hSüdosten4.0 km/hSüdosten1011.4 hPa0.0 mm0.0 mm/h
02.07.2020 - 04.15Uhr17.3 °C14.9 °C86 %0.0 W/m²0.2 km/hSüdosten1.8 km/hSüdosten1011.3 hPa0.0 mm0.0 mm/h
02.07.2020 - 04.20Uhr17.3 °C14.9 °C86 %0.0 W/m²0.2 km/hSüdosten1.8 km/hSüdosten1011.4 hPa0.0 mm0.0 mm/h
02.07.2020 - 04.25Uhr17.3 °C14.9 °C86 %0.0 W/m²0.0 km/hSüdosten0.0 km/hNorden1011.4 hPa0.0 mm0.0 mm/h
02.07.2020 - 04.30Uhr17.3 °C14.9 °C86 %0.0 W/m²0.0 km/hSüdosten0.0 km/hNorden1011.3 hPa0.0 mm0.0 mm/h
02.07.2020 - 04.35Uhr17.3 °C14.9 °C86 %0.0 W/m²4.2 km/hSüdosten8.3 km/hSüdosten1011.2 hPa0.0 mm0.0 mm/h
02.07.2020 - 04.40Uhr17.2 °C14.8 °C86 %0.0 W/m²2.8 km/hSüdosten8.3 km/hSüdosten1011.1 hPa0.0 mm0.0 mm/h
02.07.2020 - 04.45Uhr17.2 °C14.8 °C86 %0.0 W/m²0.0 km/hSüdosten0.0 km/hNorden1011.2 hPa0.0 mm0.0 mm/h
02.07.2020 - 04.50Uhr17.3 °C14.9 °C86 %0.0 W/m²0.8 km/hSüdosten4.0 km/hSüdosten1011.1 hPa0.0 mm0.0 mm/h
02.07.2020 - 04.55Uhr17.2 °C14.8 °C86 %0.0 W/m²2.9 km/hSüdosten8.3 km/hSüdosten1011.1 hPa0.2 mm0.0 mm/h
02.07.2020 - 05.00Uhr16.9 °C14.5 °C86 %0.0 W/m²3.1 km/hSüdosten8.3 km/hSüdosten1011.1 hPa0.0 mm0.0 mm/h
02.07.2020 - 05.05Uhr17.1 °C14.7 °C86 %0.0 W/m²0.0 km/hSüdosten0.0 km/hNorden1011.2 hPa0.0 mm0.0 mm/h
02.07.2020 - 05.10Uhr17.1 °C14.7 °C86 %0.0 W/m²1.0 km/hSüdosten4.0 km/hSüdosten1011.3 hPa0.0 mm0.0 mm/h
02.07.2020 - 05.15Uhr16.9 °C14.5 °C86 %0.0 W/m²2.6 km/hSüdosten8.3 km/hSüdosten1011.3 hPa0.0 mm0.0 mm/h
02.07.2020 - 05.20Uhr17.0 °C14.6 °C86 %0.0 W/m²2.2 km/hSüdosten8.3 km/hSüdosten1011.3 hPa0.0 mm0.0 mm/h
02.07.2020 - 05.25Uhr17.0 °C14.6 °C86 %0.0 W/m²2.9 km/hSüdosten8.3 km/hSüdosten1011.4 hPa0.0 mm0.0 mm/h
02.07.2020 - 05.30Uhr17.0 °C14.6 °C86 %0.0 W/m²4.0 km/hSüdosten8.3 km/hSüdosten1011.4 hPa0.0 mm0.0 mm/h
02.07.2020 - 05.35Uhr16.9 °C14.5 °C86 %0.0 W/m²1.7 km/hSüdosten8.3 km/hSüdosten1011.4 hPa0.0 mm0.0 mm/h
02.07.2020 - 05.40Uhr16.9 °C14.5 °C86 %5.0 W/m²5.0 km/hSüdosten8.3 km/hSüdosten1011.5 hPa0.0 mm0.0 mm/h
02.07.2020 - 05.45Uhr16.9 °C14.5 °C86 %9.0 W/m²2.6 km/hSüdosten10.1 km/hSüdosten1011.4 hPa0.0 mm0.0 mm/h
02.07.2020 - 05.50Uhr17.1 °C14.7 °C86 %9.0 W/m²0.3 km/hSüdosten1.8 km/hSüdosten1011.6 hPa0.0 mm0.0 mm/h
02.07.2020 - 05.55Uhr17.1 °C14.7 °C86 %26.0 W/m²2.2 km/hSüdosten4.0 km/hSüdosten1011.6 hPa0.0 mm0.0 mm/h
02.07.2020 - 06.00Uhr17.1 °C14.7 °C86 %42.0 W/m²1.3 km/hSüdosten4.0 km/hSüdosten1011.5 hPa0.0 mm0.0 mm/h
02.07.2020 - 06.05Uhr17.2 °C14.8 °C86 %58.0 W/m²0.9 km/hSüdosten4.0 km/hSüdosten1011.7 hPa0.0 mm0.0 mm/h
02.07.2020 - 06.10Uhr17.4 °C15.0 °C86 %62.0 W/m²1.6 km/hSüdosten4.0 km/hSüdosten1011.6 hPa0.0 mm0.0 mm/h
02.07.2020 - 06.15Uhr17.4 °C15.0 °C86 %58.0 W/m²1.9 km/hSüdosten4.0 km/hSüdosten1011.5 hPa0.0 mm0.0 mm/h
02.07.2020 - 06.20Uhr17.5 °C15.1 °C86 %53.0 W/m²1.0 km/hSüdosten4.0 km/hSüdosten1011.5 hPa0.0 mm0.0 mm/h
02.07.2020 - 06.25Uhr17.6 °C15.2 °C86 %49.0 W/m²0.0 km/hSüdosten0.0 km/hNorden1011.6 hPa0.2 mm0.0 mm/h
02.07.2020 - 06.30Uhr17.7 °C15.3 °C86 %30.0 W/m²0.4 km/hSüdosten1.8 km/hSüdosten1011.8 hPa0.0 mm0.0 mm/h
02.07.2020 - 06.35Uhr17.6 °C15.2 °C86 %37.0 W/m²0.0 km/hSüdosten0.0 km/hNorden1011.8 hPa0.0 mm0.0 mm/h
02.07.2020 - 06.40Uhr17.6 °C15.2 °C86 %39.0 W/m²0.0 km/hSüdosten0.0 km/hNorden1011.8 hPa0.0 mm0.0 mm/h
02.07.2020 - 06.45Uhr17.6 °C15.2 °C86 %33.0 W/m²0.5 km/hSüdosten1.8 km/hSüdosten1011.9 hPa0.0 mm0.0 mm/h
02.07.2020 - 06.50Uhr17.7 °C15.3 °C86 %30.0 W/m²0.3 km/hSüdosten1.8 km/hSüdosten1011.9 hPa0.0 mm0.0 mm/h
02.07.2020 - 06.55Uhr17.8 °C15.4 °C86 %32.0 W/m²0.0 km/hSüdosten0.0 km/hNorden1011.9 hPa0.0 mm0.0 mm/h
02.07.2020 - 07.00Uhr17.8 °C15.4 °C86 %70.0 W/m²0.1 km/hSüdosten1.8 km/hSüdosten1011.9 hPa0.0 mm0.0 mm/h
02.07.2020 - 07.05Uhr17.9 °C15.4 °C86 %70.0 W/m²1.5 km/hSüdosten8.3 km/hSüdosten1011.9 hPa0.0 mm0.0 mm/h
02.07.2020 - 07.10Uhr17.8 °C15.4 °C86 %65.0 W/m²0.9 km/hSüdosten4.0 km/hSüdosten1011.9 hPa0.0 mm0.0 mm/h
02.07.2020 - 07.15Uhr17.9 °C15.5 °C86 %121.0 W/m²1.9 km/hSüdosten8.3 km/hSüdosten1011.9 hPa0.0 mm0.0 mm/h
02.07.2020 - 07.20Uhr18.0 °C15.6 °C86 %77.0 W/m²0.3 km/hSüdosten1.8 km/hSüdosten1011.8 hPa0.0 mm0.0 mm/h
02.07.2020 - 07.25Uhr18.0 °C15.6 °C86 %91.0 W/m²0.5 km/hSüdosten1.8 km/hSüdosten1011.9 hPa0.0 mm0.0 mm/h
02.07.2020 - 07.30Uhr18.1 °C15.7 °C86 %121.0 W/m²0.3 km/hSüdosten1.8 km/hSüdosten1012.0 hPa0.0 mm0.0 mm/h
02.07.2020 - 07.35Uhr18.4 °C16.0 °C86 %116.0 W/m²0.0 km/hSüdosten0.0 km/hNorden1012.0 hPa0.0 mm0.0 mm/h
02.07.2020 - 07.40Uhr18.4 °C16.0 °C86 %97.0 W/m²0.5 km/hSüdosten1.8 km/hSüdosten1011.9 hPa0.0 mm0.0 mm/h
02.07.2020 - 07.45Uhr18.3 °C15.9 °C86 %79.0 W/m²1.0 km/hSüdosten4.0 km/hSüdosten1012.0 hPa0.0 mm0.0 mm/h
02.07.2020 - 07.50Uhr18.2 °C15.8 °C86 %111.0 W/m²0.9 km/hSüdosten4.0 km/hSüdosten1012.0 hPa0.0 mm0.0 mm/h
02.07.2020 - 07.55Uhr18.3 °C15.9 °C86 %176.0 W/m²2.4 km/hSüdosten8.3 km/hSüdosten1012.0 hPa0.0 mm0.0 mm/h
02.07.2020 - 08.00Uhr18.8 °C16.4 °C86 %225.0 W/m²3.3 km/hSüdosten8.3 km/hSüdosten1012.0 hPa0.0 mm0.0 mm/h
02.07.2020 - 08.05Uhr18.4 °C16.0 °C86 %169.0 W/m²2.0 km/hSüden10.1 km/hSüden1012.0 hPa0.0 mm0.0 mm/h
02.07.2020 - 08.10Uhr18.6 °C16.1 °C86 %220.0 W/m²3.7 km/hSüden10.1 km/hSüd-SO1012.0 hPa0.0 mm0.0 mm/h
02.07.2020 - 08.15Uhr18.7 °C16.3 °C86 %176.0 W/m²0.7 km/hSüd-SO4.0 km/hSüd-SO1012.1 hPa0.0 mm0.0 mm/h
02.07.2020 - 08.20Uhr18.8 °C16.4 °C86 %153.0 W/m²2.7 km/hSüd-SO8.3 km/hSüd-SO1012.1 hPa0.0 mm0.0 mm/h
02.07.2020 - 08.25Uhr18.7 °C16.3 °C86 %153.0 W/m²1.4 km/hSüden8.3 km/hSüden1012.1 hPa0.0 mm0.0 mm/h
02.07.2020 - 08.30Uhr18.6 °C16.2 °C86 %206.0 W/m²5.9 km/hSüden12.2 km/hSüden1012.1 hPa0.0 mm0.0 mm/h
02.07.2020 - 08.35Uhr18.6 °C16.2 °C86 %192.0 W/m²4.7 km/hSüd-SO8.3 km/hSüd-SO1012.1 hPa0.0 mm0.0 mm/h
02.07.2020 - 08.40Uhr18.9 °C16.5 °C86 %251.0 W/m²1.4 km/hSüd-SO8.3 km/hSüd-SO1012.1 hPa0.0 mm0.0 mm/h
02.07.2020 - 08.45Uhr19.3 °C16.9 °C86 %322.0 W/m²2.1 km/hSüd-SO8.3 km/hSüd-SO1012.1 hPa0.0 mm0.0 mm/h
02.07.2020 - 08.50Uhr19.4 °C17.0 °C86 %197.0 W/m²2.3 km/hSüd-SW8.3 km/hSüden1012.1 hPa0.0 mm0.0 mm/h
02.07.2020 - 08.55Uhr19.3 °C16.9 °C86 %269.0 W/m²2.0 km/hSüden8.3 km/hSüden1012.0 hPa0.0 mm0.0 mm/h
02.07.2020 - 09.00Uhr19.5 °C17.1 °C86 %206.0 W/m²2.7 km/hSüden8.3 km/hSüden1012.1 hPa0.0 mm0.0 mm/h
02.07.2020 - 09.05Uhr19.5 °C17.1 °C86 %209.0 W/m²1.2 km/hSüden4.0 km/hSüden1012.1 hPa0.0 mm0.0 mm/h
02.07.2020 - 09.10Uhr19.4 °C17.1 °C86 %469.0 W/m²5.3 km/hSüden12.2 km/hSüd-SO1012.2 hPa0.0 mm0.0 mm/h
02.07.2020 - 09.15Uhr19.7 °C17.4 °C86 %469.0 W/m²2.3 km/hSüd-SO8.3 km/hSüd-SO1012.2 hPa0.0 mm0.0 mm/h
02.07.2020 - 09.20Uhr19.7 °C17.3 °C86 %241.0 W/m²4.6 km/hSüd-SO12.2 km/hSüd-SO1012.2 hPa0.0 mm0.0 mm/h
02.07.2020 - 09.25Uhr19.7 °C17.3 °C86 %167.0 W/m²2.6 km/hSüd-SO8.3 km/hSüd-SO1012.2 hPa0.0 mm0.0 mm/h
02.07.2020 - 09.30Uhr19.9 °C17.5 °C86 %680.0 W/m²1.7 km/hSüd-SO8.3 km/hSüd-SO1012.1 hPa0.0 mm0.0 mm/h
02.07.2020 - 09.35Uhr20.1 °C17.7 °C86 %680.0 W/m²2.5 km/hSüdwesten8.3 km/hSüdwesten1012.1 hPa0.0 mm0.0 mm/h
02.07.2020 - 09.40Uhr19.9 °C17.5 °C86 %290.0 W/m²1.7 km/hSüdwesten4.0 km/hSüdwesten1012.0 hPa0.0 mm0.0 mm/h
02.07.2020 - 09.45Uhr20.1 °C17.6 °C86 %659.0 W/m²4.8 km/hWest-SW12.2 km/hWest-SW1012.0 hPa0.0 mm0.0 mm/h
02.07.2020 - 09.50Uhr20.2 °C17.8 °C86 %643.0 W/m²2.2 km/hWesten8.3 km/hWesten1011.9 hPa0.0 mm0.0 mm/h
02.07.2020 - 09.55Uhr20.5 °C18.1 °C86 %519.0 W/m²1.6 km/hWesten4.0 km/hWesten1012.0 hPa0.0 mm0.0 mm/h
02.07.2020 - 10.00Uhr20.4 °C18.0 °C86 %237.0 W/m²2.8 km/hWesten8.3 km/hWesten1012.0 hPa0.0 mm0.0 mm/h
02.07.2020 - 10.05Uhr20.5 °C18.1 °C86 %237.0 W/m²2.6 km/hWesten8.3 km/hWesten1012.0 hPa0.0 mm0.0 mm/h
02.07.2020 - 10.10Uhr20.7 °C18.3 °C86 %227.0 W/m²3.5 km/hWesten8.3 km/hWesten1012.0 hPa0.0 mm0.0 mm/h
02.07.2020 - 10.15Uhr20.4 °C18.0 °C86 %209.0 W/m²3.6 km/hWesten8.3 km/hWesten1012.0 hPa0.0 mm0.0 mm/h
02.07.2020 - 10.20Uhr20.0 °C17.6 °C86 %250.0 W/m²3.5 km/hWesten8.3 km/hWesten1012.0 hPa0.0 mm0.0 mm/h
02.07.2020 - 10.25Uhr20.1 °C17.7 °C86 %320.0 W/m²2.1 km/hWesten8.3 km/hWesten1012.0 hPa0.0 mm0.0 mm/h
02.07.2020 - 10.30Uhr20.5 °C18.2 °C86 %255.0 W/m²2.7 km/hWesten5.8 km/hWesten1012.0 hPa0.0 mm0.0 mm/h
02.07.2020 - 10.35Uhr20.3 °C17.9 °C86 %160.0 W/m²1.7 km/hWesten4.0 km/hWesten1012.0 hPa0.0 mm0.0 mm/h
02.07.2020 - 10.40Uhr20.3 °C17.9 °C86 %137.0 W/m²2.3 km/hSüden10.1 km/hSüden1012.0 hPa0.0 mm0.0 mm/h
02.07.2020 - 10.45Uhr21.2 °C18.8 °C86 %749.0 W/m²2.1 km/hSüden8.3 km/hSüden1011.9 hPa0.0 mm0.0 mm/h
02.07.2020 - 10.50Uhr22.3 °C19.7 °C85 %837.0 W/m²1.7 km/hSüden4.0 km/hSüden1011.9 hPa0.0 mm0.0 mm/h
02.07.2020 - 10.55Uhr22.6 °C19.9 °C85 %969.0 W/m²3.4 km/hSüden8.3 km/hSüden1011.8 hPa0.0 mm0.0 mm/h
02.07.2020 - 11.00Uhr21.9 °C19.1 °C84 %278.0 W/m²2.6 km/hSüdwesten5.8 km/hSüdwesten1011.8 hPa0.0 mm0.0 mm/h
02.07.2020 - 11.05Uhr21.1 °C18.4 °C85 %116.0 W/m²11.2 km/hWest-NW22.0 km/hNordwesten1011.8 hPa0.0 mm0.0 mm/h
02.07.2020 - 11.10Uhr20.4 °C17.8 °C85 %204.0 W/m²10.7 km/hWest-NW16.2 km/hWest-NW1011.7 hPa0.0 mm0.0 mm/h
02.07.2020 - 11.15Uhr20.3 °C17.8 °C86 %320.0 W/m²11.6 km/hWesten18.0 km/hNordwesten1011.9 hPa0.0 mm0.0 mm/h
02.07.2020 - 11.20Uhr20.2 °C17.7 °C85 %241.0 W/m²11.0 km/hWesten16.2 km/hWesten1011.8 hPa0.0 mm0.0 mm/h
02.07.2020 - 11.25Uhr20.3 °C17.9 °C86 %243.0 W/m²4.8 km/hWesten12.2 km/hWesten1011.8 hPa0.0 mm0.0 mm/h
02.07.2020 - 11.30Uhr20.3 °C17.7 °C85 %334.0 W/m²9.8 km/hWesten16.2 km/hWesten1011.9 hPa0.0 mm0.0 mm/h
02.07.2020 - 11.35Uhr20.6 °C17.9 °C85 %287.0 W/m²6.3 km/hWest-NW16.2 km/hSüdwesten1011.9 hPa0.0 mm0.0 mm/h
02.07.2020 - 11.40Uhr20.6 °C18.0 °C85 %223.0 W/m²6.0 km/hWesten8.3 km/hWest-SW1011.9 hPa0.0 mm0.0 mm/h
02.07.2020 - 11.45Uhr20.4 °C17.7 °C85 %118.0 W/m²7.4 km/hWesten14.0 km/hWest-SW1012.0 hPa0.0 mm0.0 mm/h
02.07.2020 - 11.50Uhr20.1 °C17.4 °C84 %84.0 W/m²12.6 km/hWesten24.5 km/hWest-NW1012.1 hPa0.0 mm0.0 mm/h
02.07.2020 - 11.55Uhr20.0 °C17.2 °C84 %185.0 W/m²13.9 km/hWesten28.4 km/hWesten1012.1 hPa0.0 mm0.0 mm/h
02.07.2020 - 12.00Uhr20.2 °C17.5 °C84 %199.0 W/m²3.3 km/hWesten10.1 km/hWesten1012.2 hPa0.0 mm0.0 mm/h
02.07.2020 - 12.05Uhr20.4 °C17.8 °C85 %396.0 W/m²8.6 km/hWesten16.2 km/hWesten1012.2 hPa0.0 mm0.0 mm/h
02.07.2020 - 12.10Uhr20.5 °C17.6 °C84 %283.0 W/m²14.3 km/hWesten20.2 km/hWest-NW1012.3 hPa0.0 mm0.0 mm/h
02.07.2020 - 12.15Uhr20.4 °C17.3 °C83 %178.0 W/m²15.4 km/hWesten26.3 km/hWesten1012.3 hPa0.0 mm0.0 mm/h
02.07.2020 - 12.20Uhr20.2 °C17.3 °C83 %135.0 W/m²12.8 km/hWest-NW20.2 km/hWesten1012.4 hPa0.0 mm0.0 mm/h
02.07.2020 - 12.25Uhr20.1 °C17.2 °C83 %165.0 W/m²12.8 km/hWesten22.0 km/hWesten1012.4 hPa0.0 mm0.0 mm/h
02.07.2020 - 12.30Uhr20.2 °C17.2 °C83 %202.0 W/m²13.5 km/hWesten28.4 km/hWesten1012.4 hPa0.0 mm0.0 mm/h
02.07.2020 - 12.35Uhr20.3 °C17.3 °C83 %197.0 W/m²13.2 km/hWesten28.4 km/hWesten1012.4 hPa0.0 mm0.0 mm/h
02.07.2020 - 12.40Uhr20.2 °C17.2 °C83 %188.0 W/m²9.0 km/hWesten20.2 km/hWest-NW1012.4 hPa0.0 mm0.0 mm/h
02.07.2020 - 12.45Uhr20.3 °C17.4 °C83 %178.0 W/m²9.6 km/hWesten18.0 km/hNordwesten1012.4 hPa0.0 mm0.0 mm/h
02.07.2020 - 12.50Uhr20.2 °C17.2 °C83 %174.0 W/m²11.1 km/hWest-NW20.2 km/hWest-NW1012.4 hPa0.0 mm0.0 mm/h
02.07.2020 - 12.55Uhr20.2 °C17.1 °C82 %206.0 W/m²12.2 km/hWesten24.5 km/hWesten1012.3 hPa0.0 mm0.0 mm/h
02.07.2020 - 13.00Uhr20.4 °C17.2 °C82 %325.0 W/m²7.9 km/hWest-NW14.0 km/hWest-NW1012.4 hPa0.0 mm0.0 mm/h
02.07.2020 - 13.05Uhr20.7 °C17.5 °C82 %406.0 W/m²10.4 km/hWest-NW18.0 km/hWesten1012.3 hPa0.0 mm0.0 mm/h
02.07.2020 - 13.10Uhr20.8 °C17.4 °C81 %290.0 W/m²9.4 km/hWesten18.0 km/hWesten1012.3 hPa0.0 mm0.0 mm/h
02.07.2020 - 13.15Uhr20.9 °C17.6 °C82 %373.0 W/m²10.3 km/hWest-NW20.2 km/hWesten1012.3 hPa0.0 mm0.0 mm/h
02.07.2020 - 13.20Uhr21.0 °C17.5 °C81 %345.0 W/m²13.6 km/hWesten28.4 km/hWesten1012.2 hPa0.0 mm0.0 mm/h
02.07.2020 - 13.25Uhr21.0 °C17.6 °C81 %406.0 W/m²10.7 km/hWest-NW20.2 km/hWesten1012.2 hPa0.0 mm0.0 mm/h
02.07.2020 - 13.30Uhr21.4 °C17.7 °C79 %406.0 W/m²15.1 km/hWesten24.5 km/hWesten1012.2 hPa0.0 mm0.0 mm/h
02.07.2020 - 13.35Uhr21.4 °C17.8 °C80 %958.0 W/m²11.6 km/hWest-NW22.0 km/hWesten1012.2 hPa0.0 mm0.0 mm/h
02.07.2020 - 13.40Uhr22.2 °C18.6 °C80 %956.0 W/m²12.6 km/hWest-NW22.0 km/hWest-NW1012.2 hPa0.0 mm0.0 mm/h
02.07.2020 - 13.45Uhr22.7 °C18.5 °C77 %956.0 W/m²15.4 km/hWest-NW32.4 km/hWesten1012.1 hPa0.0 mm0.0 mm/h
02.07.2020 - 13.50Uhr22.8 °C18.5 °C77 %956.0 W/m²15.4 km/hWesten26.3 km/hWest-SW1012.1 hPa0.0 mm0.0 mm/h
02.07.2020 - 13.55Uhr22.8 °C18.2 °C76 %947.0 W/m²14.6 km/hWesten28.4 km/hWesten1012.1 hPa0.0 mm0.0 mm/h
02.07.2020 - 14.00Uhr22.8 °C18.1 °C75 %981.0 W/m²16.7 km/hWesten36.0 km/hWest-NW1012.0 hPa0.0 mm0.0 mm/h
02.07.2020 - 14.05Uhr22.9 °C17.8 °C73 %967.0 W/m²18.3 km/hWesten32.4 km/hWesten1012.0 hPa0.0 mm0.0 mm/h
02.07.2020 - 14.10Uhr22.8 °C17.7 °C73 %907.0 W/m²17.8 km/hWesten26.3 km/hWesten1012.0 hPa0.0 mm0.0 mm/h
02.07.2020 - 14.15Uhr22.6 °C17.8 °C74 %976.0 W/m²13.9 km/hWest-NW20.2 km/hWesten1012.0 hPa0.0 mm0.0 mm/h
02.07.2020 - 14.20Uhr22.3 °C17.7 °C75 %1099.0 W/m²16.6 km/hWest-NW24.5 km/hWesten1012.1 hPa0.0 mm0.0 mm/h
02.07.2020 - 14.25Uhr22.8 °C18.1 °C75 %1099.0 W/m²12.9 km/hWest-NW22.0 km/hWesten1012.1 hPa0.0 mm0.0 mm/h
02.07.2020 - 14.30Uhr22.5 °C17.4 °C73 %345.0 W/m²17.6 km/hWest-NW30.2 km/hWest-NW1012.2 hPa0.0 mm0.0 mm/h
02.07.2020 - 14.35Uhr22.0 °C17.5 °C75 %376.0 W/m²15.4 km/hWesten22.0 km/hWesten1012.2 hPa0.0 mm0.0 mm/h
02.07.2020 - 14.40Uhr22.1 °C17.4 °C75 %406.0 W/m²15.7 km/hWest-NW28.4 km/hWesten1012.3 hPa0.0 mm0.0 mm/h
02.07.2020 - 14.45Uhr21.9 °C17.4 °C76 %448.0 W/m²17.7 km/hWesten28.4 km/hWesten1012.3 hPa0.0 mm0.0 mm/h
02.07.2020 - 14.50Uhr21.9 °C17.6 °C76 %497.0 W/m²11.1 km/hWest-NW18.0 km/hWest-NW1012.2 hPa0.0 mm0.0 mm/h
02.07.2020 - 14.55Uhr22.5 °C18.0 °C76 %1137.0 W/m²14.6 km/hWesten28.4 km/hWest-NW1012.2 hPa0.0 mm0.0 mm/h
02.07.2020 - 15.00Uhr23.0 °C17.9 °C73 %1137.0 W/m²13.8 km/hWesten24.5 km/hWesten1012.2 hPa0.0 mm0.0 mm/h
02.07.2020 - 15.05Uhr22.6 °C17.6 °C74 %670.0 W/m²12.4 km/hWest-NW30.2 km/hWesten1012.3 hPa0.0 mm0.0 mm/h
02.07.2020 - 15.10Uhr22.2 °C17.2 °C74 %519.0 W/m²13.9 km/hWest-NW24.5 km/hWesten1012.3 hPa0.0 mm0.0 mm/h
02.07.2020 - 15.15Uhr22.4 °C18.0 °C76 %1013.0 W/m²12.8 km/hWest-NW16.2 km/hSüdwesten1012.3 hPa0.0 mm0.0 mm/h
02.07.2020 - 15.20Uhr23.3 °C18.1 °C72 %1100.0 W/m²14.8 km/hWesten26.3 km/hWesten1012.2 hPa0.0 mm0.0 mm/h
02.07.2020 - 15.25Uhr23.2 °C17.9 °C72 %1100.0 W/m²15.6 km/hWesten28.4 km/hWesten1012.3 hPa0.0 mm0.0 mm/h
02.07.2020 - 15.30Uhr23.0 °C17.7 °C72 %863.0 W/m²16.1 km/hWest-NW36.0 km/hWesten1012.4 hPa0.0 mm0.0 mm/h
02.07.2020 - 15.35Uhr22.3 °C17.2 °C73 %327.0 W/m²18.6 km/hWest-NW36.0 km/hWest-NW1012.4 hPa0.0 mm0.0 mm/h
02.07.2020 - 15.40Uhr21.5 °C16.8 °C75 %369.0 W/m²16.6 km/hWesten28.4 km/hWesten1012.5 hPa0.0 mm0.0 mm/h
02.07.2020 - 15.45Uhr21.3 °C16.8 °C76 %313.0 W/m²12.9 km/hWest-NW28.4 km/hWesten1012.5 hPa0.0 mm0.0 mm/h
02.07.2020 - 15.50Uhr21.2 °C16.7 °C75 %346.0 W/m²14.3 km/hWest-NW18.0 km/hWesten1012.5 hPa0.0 mm0.0 mm/h
02.07.2020 - 15.55Uhr21.7 °C17.4 °C76 %441.0 W/m²12.5 km/hWest-NW24.5 km/hWesten1012.3 hPa0.0 mm0.0 mm/h
02.07.2020 - 16.00Uhr21.9 °C16.8 °C73 %320.0 W/m²14.2 km/hNord-NW26.3 km/hNord-NW1012.2 hPa0.0 mm0.0 mm/h
02.07.2020 - 16.05Uhr21.7 °C16.8 °C74 %380.0 W/m²15.3 km/hWest-NW26.3 km/hWesten1012.2 hPa0.0 mm0.0 mm/h
02.07.2020 - 16.10Uhr21.8 °C16.7 °C73 %940.0 W/m²20.2 km/hWesten38.2 km/hWesten1012.2 hPa0.0 mm0.0 mm/h
02.07.2020 - 16.15Uhr22.4 °C17.2 °C73 %977.0 W/m²16.7 km/hWesten30.2 km/hWesten1012.1 hPa0.0 mm0.0 mm/h
02.07.2020 - 16.20Uhr23.3 °C18.1 °C73 %879.0 W/m²12.9 km/hWesten26.3 km/hWesten1012.1 hPa0.0 mm0.0 mm/h
02.07.2020 - 16.25Uhr23.5 °C17.4 °C69 %872.0 W/m²11.2 km/hWest-NW24.5 km/hNord-NW1012.1 hPa0.0 mm0.0 mm/h
02.07.2020 - 16.30Uhr23.5 °C18.1 °C72 %967.0 W/m²11.5 km/hWest-NW16.2 km/hWesten1012.1 hPa0.0 mm0.0 mm/h
02.07.2020 - 16.35Uhr23.6 °C17.3 °C68 %925.0 W/m²14.6 km/hWesten22.0 km/hWesten1012.1 hPa0.0 mm0.0 mm/h
02.07.2020 - 16.40Uhr22.9 °C17.0 °C69 %302.0 W/m²16.8 km/hWest-NW30.2 km/hWest-SW1012.1 hPa0.0 mm0.0 mm/h
02.07.2020 - 16.45Uhr22.2 °C16.3 °C70 %278.0 W/m²18.4 km/hWesten28.4 km/hWesten1012.0 hPa0.0 mm0.0 mm/h
02.07.2020 - 16.50Uhr21.8 °C16.4 °C72 %343.0 W/m²13.8 km/hWesten22.0 km/hWest-SW1012.1 hPa0.0 mm0.0 mm/h
02.07.2020 - 16.55Uhr22.0 °C16.8 °C73 %403.0 W/m²11.2 km/hWest-NW24.5 km/hWest-NW1012.0 hPa0.0 mm0.0 mm/h
02.07.2020 - 17.00Uhr22.4 °C16.9 °C71 %403.0 W/m²12.3 km/hWesten28.4 km/hWest-NW1012.1 hPa0.0 mm0.0 mm/h
02.07.2020 - 17.05Uhr22.7 °C16.9 °C70 %346.0 W/m²14.9 km/hWesten22.0 km/hWesten1012.1 hPa0.0 mm0.0 mm/h
02.07.2020 - 17.10Uhr22.6 °C16.5 °C68 %359.0 W/m²14.8 km/hWest-NW24.5 km/hWesten1012.1 hPa0.0 mm0.0 mm/h
02.07.2020 - 17.15Uhr22.6 °C16.9 °C70 %271.0 W/m²9.4 km/hWest-NW18.0 km/hWesten1012.1 hPa0.0 mm0.0 mm/h
02.07.2020 - 17.20Uhr23.1 °C16.8 °C68 %696.0 W/m²13.0 km/hWest-NW24.5 km/hWesten1012.2 hPa0.0 mm0.0 mm/h
02.07.2020 - 17.25Uhr22.8 °C16.1 °C66 %357.0 W/m²14.6 km/hWest-NW28.4 km/hNordwesten1012.1 hPa0.0 mm0.0 mm/h
02.07.2020 - 17.30Uhr22.8 °C16.0 °C66 %455.0 W/m²13.2 km/hWest-NW22.0 km/hWesten1012.1 hPa0.0 mm0.0 mm/h
02.07.2020 - 17.35Uhr22.8 °C15.8 °C65 %394.0 W/m²14.5 km/hWesten24.5 km/hWesten1012.1 hPa0.0 mm0.0 mm/h
02.07.2020 - 17.40Uhr22.9 °C16.0 °C65 %643.0 W/m²12.7 km/hWesten18.0 km/hWesten1012.1 hPa0.0 mm0.0 mm/h
02.07.2020 - 17.45Uhr23.3 °C16.1 °C64 %643.0 W/m²13.6 km/hWest-NW24.5 km/hWesten1012.1 hPa0.0 mm0.0 mm/h
02.07.2020 - 17.50Uhr23.4 °C16.0 °C63 %306.0 W/m²14.2 km/hNordwesten28.4 km/hWest-NW1012.2 hPa0.0 mm0.0 mm/h
02.07.2020 - 17.55Uhr23.2 °C15.8 °C63 %687.0 W/m²13.7 km/hWesten28.4 km/hWest-NW1012.2 hPa0.0 mm0.0 mm/h
02.07.2020 - 18.00Uhr23.5 °C15.6 °C62 %664.0 W/m²17.9 km/hWesten34.2 km/hWesten1012.2 hPa0.0 mm0.0 mm/h
02.07.2020 - 18.05Uhr23.6 °C15.7 °C61 %649.0 W/m²12.0 km/hWest-NW20.2 km/hWest-SW1012.2 hPa0.0 mm0.0 mm/h
02.07.2020 - 18.10Uhr23.4 °C15.4 °C61 %570.0 W/m²14.8 km/hWest-NW26.3 km/hWesten1012.2 hPa0.0 mm0.0 mm/h
02.07.2020 - 18.15Uhr23.3 °C15.3 °C61 %635.0 W/m²12.0 km/hWest-NW16.2 km/hWesten1012.2 hPa0.0 mm0.0 mm/h
02.07.2020 - 18.20Uhr22.8 °C15.0 °C62 %221.0 W/m²12.5 km/hWesten24.5 km/hWest-NW1012.2 hPa0.0 mm0.0 mm/h
02.07.2020 - 18.25Uhr22.3 °C15.3 °C64 %185.0 W/m²10.7 km/hWesten18.0 km/hWesten1012.3 hPa0.0 mm0.0 mm/h
02.07.2020 - 18.30Uhr22.3 °C15.2 °C64 %218.0 W/m²12.3 km/hWest-NW18.0 km/hWesten1012.4 hPa0.0 mm0.0 mm/h
02.07.2020 - 18.35Uhr22.5 °C15.1 °C63 %519.0 W/m²16.7 km/hWesten24.5 km/hWest-SW1012.4 hPa0.0 mm0.0 mm/h
02.07.2020 - 18.40Uhr23.0 °C15.5 °C63 %510.0 W/m²13.8 km/hWesten22.0 km/hWest-SW1012.5 hPa0.0 mm0.0 mm/h
02.07.2020 - 18.45Uhr23.2 °C15.6 °C62 %508.0 W/m²14.7 km/hWest-NW26.3 km/hWesten1012.5 hPa0.0 mm0.0 mm/h
02.07.2020 - 18.50Uhr23.3 °C15.8 °C62 %478.0 W/m²11.3 km/hWesten18.0 km/hWesten1012.6 hPa0.0 mm0.0 mm/h
02.07.2020 - 18.55Uhr23.3 °C15.8 °C63 %459.0 W/m²13.8 km/hWest-NW28.4 km/hWesten1012.6 hPa0.0 mm0.0 mm/h
02.07.2020 - 19.00Uhr23.2 °C15.4 °C62 %445.0 W/m²17.5 km/hWesten30.2 km/hWesten1012.7 hPa0.0 mm0.0 mm/h
02.07.2020 - 19.05Uhr22.9 °C15.2 °C62 %438.0 W/m²15.7 km/hWest-NW22.0 km/hWesten1012.9 hPa0.0 mm0.0 mm/h
02.07.2020 - 19.10Uhr22.9 °C15.3 °C62 %413.0 W/m²15.3 km/hWesten24.5 km/hWesten1012.9 hPa0.0 mm0.0 mm/h
02.07.2020 - 19.15Uhr22.5 °C15.2 °C64 %193.0 W/m²11.9 km/hWest-NW22.0 km/hWesten1013.1 hPa0.0 mm0.0 mm/h
02.07.2020 - 19.20Uhr22.1 °C15.2 °C65 %141.0 W/m²8.4 km/hWest-NW16.2 km/hWesten1013.1 hPa0.0 mm0.0 mm/h
02.07.2020 - 19.25Uhr21.8 °C15.1 °C66 %113.0 W/m²8.7 km/hWesten16.2 km/hWesten1013.2 hPa0.0 mm0.0 mm/h
02.07.2020 - 19.30Uhr21.7 °C14.8 °C65 %77.0 W/m²11.7 km/hWesten18.0 km/hWesten1013.2 hPa0.0 mm0.0 mm/h
02.07.2020 - 19.35Uhr21.5 °C14.8 °C66 %74.0 W/m²10.4 km/hWesten16.2 km/hWest-NW1013.3 hPa0.0 mm0.0 mm/h
02.07.2020 - 19.40Uhr21.4 °C14.4 °C65 %67.0 W/m²13.5 km/hWesten24.5 km/hWest-SW1013.2 hPa0.0 mm0.0 mm/h
02.07.2020 - 19.45Uhr21.4 °C14.2 °C63 %63.0 W/m²18.0 km/hWesten24.5 km/hWesten1013.3 hPa0.0 mm0.0 mm/h
02.07.2020 - 19.50Uhr21.4 °C14.4 °C64 %69.0 W/m²12.0 km/hWest-NW18.0 km/hWest-NW1013.3 hPa0.0 mm0.0 mm/h
02.07.2020 - 19.55Uhr21.3 °C14.4 °C65 %69.0 W/m²13.5 km/hWesten28.4 km/hWest-SW1013.4 hPa0.0 mm0.0 mm/h
02.07.2020 - 20.00Uhr21.3 °C14.5 °C65 %62.0 W/m²14.5 km/hWest-NW26.3 km/hWesten1013.4 hPa0.0 mm0.0 mm/h
02.07.2020 - 20.05Uhr21.2 °C14.4 °C65 %47.0 W/m²15.4 km/hWesten22.0 km/hWesten1013.4 hPa0.0 mm0.0 mm/h
02.07.2020 - 20.10Uhr21.1 °C14.6 °C66 %86.0 W/m²12.7 km/hWest-NW18.0 km/hWesten1013.5 hPa0.0 mm0.0 mm/h
02.07.2020 - 20.15Uhr21.2 °C14.7 °C66 %60.0 W/m²11.3 km/hWest-NW18.0 km/hWesten1013.4 hPa0.0 mm0.0 mm/h
02.07.2020 - 20.20Uhr21.2 °C14.7 °C66 %111.0 W/m²11.9 km/hWest-NW18.0 km/hWesten1013.4 hPa0.0 mm0.0 mm/h
02.07.2020 - 20.25Uhr21.5 °C14.8 °C66 %109.0 W/m²12.6 km/hWest-NW24.5 km/hWesten1013.4 hPa0.0 mm0.0 mm/h
02.07.2020 - 20.30Uhr21.6 °C14.6 °C65 %100.0 W/m²12.8 km/hWest-NW24.5 km/hWesten1013.4 hPa0.0 mm0.0 mm/h
02.07.2020 - 20.35Uhr21.3 °C14.7 °C66 %62.0 W/m²10.8 km/hWesten14.0 km/hWesten1013.4 hPa0.0 mm0.0 mm/h
02.07.2020 - 20.40Uhr21.0 °C14.6 °C67 %53.0 W/m²10.0 km/hWest-NW16.2 km/hWesten1013.5 hPa0.0 mm0.0 mm/h
02.07.2020 - 20.45Uhr20.8 °C14.3 °C66 %51.0 W/m²11.7 km/hWesten16.2 km/hWesten1013.5 hPa0.0 mm0.0 mm/h
02.07.2020 - 20.50Uhr20.8 °C14.4 °C67 %33.0 W/m²8.3 km/hWesten12.2 km/hWesten1013.5 hPa0.0 mm0.0 mm/h
02.07.2020 - 20.55Uhr20.6 °C14.4 °C67 %21.0 W/m²8.3 km/hWesten14.0 km/hWesten1013.5 hPa0.0 mm0.0 mm/h
02.07.2020 - 21.00Uhr20.4 °C14.2 °C68 %19.0 W/m²7.9 km/hWesten14.0 km/hWesten1013.6 hPa0.0 mm0.0 mm/h
02.07.2020 - 21.05Uhr14.0 W/m²